Hovedside
METAR-TAF:

METAR-TAF

Lufthavner :

Enontekiö lufthavn

Enontekis, Finland

breddegrad: 68-21-52N, lengdegrad: 023-25-39E, høyde over havet: 308 m

Gjeldene værobservasjon

Denne rapporten ble laget for 16 minutter siden, klokken 09:50 UTC
Vind 5 kt fra Nord
Temperatur -7°C
Luftfuktighet 86%
Trykk 1004 hPa
Sikt 10 km eller mer
Brutte skyer i en høyde av 1700 ft
Overskyet i en høyde av 3000 ft

METAR: EFET 100950Z AUTO 36005KT 9999 BKN017 OVC030 M07/M09 Q1004

Tid: 12:06 (10:06 UTC)

Varsel

Denne rapporten ble laget for 1 time og 29 minutter siden, klokken 08:37 UTC
Varsel gyldig fra 10. klokken 09 UTC til 10. klokken 15 UTC
Vind 6 kt fra Nord-nordøst
Sikt 10 km eller mer
Overskyet i en høyde av 2500 ft
Midlertidig
fra 10. klokken 09 UTC til 10. klokken 15 UTC
Sikt: 4000 m
Brutte skyer i en høyde av 800 ft
lett snø

TAF: EFET 100837Z 1009/1015 02006KT 9999 OVC025 TEMPO 1009/1015 4000 -SN BKN008

Værobservasjoner og værvarsel for over 4000 flyplasser (METAR- og TAF-rapporter).

Tilgjengelige stasjoner er representert av de røde og gule prikkene på kartet.

Hold musepekeren over prikken for å se navnet på stasjonen.

Klikk så for å se værobservasjoner og -varsler.

For å forandre kartet kan du klikke på den grønne knappen med svart kryss for å zoome inn, på den grønne knappen med strek for å zoome ut, eller på de grønne pilene for å se tilstøtende kart.


METAR-TAF: